createdAt,value
2023-03-23T00:02:35.315Z,68.2
2023-03-23T00:14:35.302Z,68.8
2023-03-23T00:26:48.088Z,69.8
2023-03-23T00:38:35.314Z,70.3
2023-03-23T00:50:38.827Z,71.5
2023-03-23T01:02:35.432Z,71.7
2023-03-23T01:14:35.303Z,72.6
2023-03-23T01:26:35.411Z,72.6
2023-03-23T01:38:35.307Z,73.7
2023-03-23T01:50:35.425Z,73.6
2023-03-23T02:02:35.375Z,73.8
2023-03-23T02:14:35.389Z,75.0
2023-03-23T02:26:35.317Z,76.6
2023-03-23T02:38:35.309Z,74.7
2023-03-23T02:50:35.385Z,75.7
2023-03-23T03:02:35.430Z,76.5
2023-03-23T03:14:35.398Z,77.3
2023-03-23T03:26:35.403Z,78.5
2023-03-23T03:38:35.325Z,82.4
2023-03-23T03:50:35.475Z,84.8
2023-03-23T04:02:35.415Z,85.8
2023-03-23T04:14:35.318Z,86.5
2023-03-23T04:26:35.335Z,86.7
2023-03-23T04:38:35.315Z,87.5
2023-03-23T04:50:35.440Z,88.2
2023-03-23T05:02:36.111Z,88.4
2023-03-23T05:14:37.805Z,88.7
2023-03-23T05:26:35.314Z,88.8
2023-03-23T05:38:35.318Z,88.7
2023-03-23T05:50:35.421Z,88.4
2023-03-23T06:02:35.398Z,87.3
2023-03-23T06:14:35.395Z,86.8
2023-03-23T06:26:35.600Z,86.3
2023-03-23T06:38:35.325Z,85.3
2023-03-23T06:50:35.411Z,85.0
2023-03-23T07:02:35.426Z,84.4
2023-03-23T07:14:36.823Z,83.8
2023-03-23T07:26:35.685Z,83.2
2023-03-23T07:38:35.314Z,82.9
2023-03-23T07:50:35.429Z,82.7
2023-03-23T08:02:35.445Z,82.9
2023-03-23T08:14:35.378Z,82.3
2023-03-23T08:26:35.330Z,82.5
2023-03-23T08:38:35.311Z,81.1
2023-03-23T08:50:35.378Z,79.9
2023-03-23T09:02:35.312Z,78.8
2023-03-23T09:14:35.327Z,78.2
2023-03-23T09:26:35.398Z,75.9
2023-03-23T09:38:35.305Z,74.1
2023-03-23T09:50:35.325Z,73.0
2023-03-23T10:02:35.703Z,73.4
2023-03-23T10:14:35.308Z,75.5
2023-03-23T10:26:35.307Z,74.2
2023-03-23T10:38:35.428Z,74.3
2023-03-23T10:50:35.437Z,74.1
2023-03-23T11:02:40.969Z,75.4
2023-03-23T11:14:35.315Z,75.6
2023-03-23T11:26:35.406Z,74.7
2023-03-23T11:38:35.312Z,71.4
2023-03-23T11:50:35.404Z,71.2
2023-03-23T12:02:35.442Z,70.0
2023-03-23T12:14:38.319Z,70.2
2023-03-23T12:26:35.330Z,69.3
2023-03-23T12:38:35.312Z,69.0
2023-03-23T12:50:35.432Z,68.1
2023-03-23T13:02:35.329Z,66.2
2023-03-23T13:14:35.310Z,65.7
2023-03-23T13:26:35.774Z,64.2
2023-03-23T13:38:35.308Z,66.7
2023-03-23T13:50:44.770Z,66.2
2023-03-23T14:02:35.329Z,65.9
2023-03-23T14:14:35.341Z,67.0
2023-03-23T14:26:35.313Z,67.6
2023-03-23T14:38:35.300Z,68.1
2023-03-23T14:50:35.365Z,68.1
2023-03-23T15:02:35.322Z,69.7
2023-03-23T15:14:35.304Z,70.6
2023-03-23T15:26:35.303Z,69.5
2023-03-23T15:38:35.430Z,68.5
2023-03-23T15:50:35.414Z,67.8
2023-03-23T16:02:35.417Z,67.9
2023-03-23T16:14:35.375Z,68.5
2023-03-23T16:26:35.326Z,68.1
2023-03-23T16:38:49.057Z,68.7
2023-03-23T16:50:35.398Z,69.0
2023-03-23T17:02:35.447Z,68.9
2023-03-23T17:14:38.186Z,69.5
2023-03-23T17:26:35.417Z,70.6
2023-03-23T17:38:35.315Z,71.0
2023-03-23T17:50:35.471Z,71.5
2023-03-23T18:02:35.530Z,72.0
2023-03-23T18:14:35.492Z,71.9
2023-03-23T18:26:35.401Z,71.9
2023-03-23T18:38:35.882Z,72.1
2023-03-23T18:50:35.339Z,71.8
2023-03-23T19:02:35.411Z,71.9
2023-03-23T19:14:35.558Z,72.1
2023-03-23T19:26:37.687Z,72.9
2023-03-23T19:38:35.413Z,73.4
2023-03-23T19:50:35.438Z,74.3
2023-03-23T20:02:42.059Z,75.4
2023-03-23T20:14:35.340Z,75.2
2023-03-23T20:26:35.437Z,75.4
2023-03-23T20:38:35.320Z,76.7
2023-03-23T20:50:35.439Z,76.8
2023-03-23T21:02:35.424Z,77.1
2023-03-23T21:14:35.376Z,76.7
2023-03-23T21:26:35.401Z,76.6
2023-03-23T21:38:35.330Z,77.5
2023-03-23T21:50:35.330Z,76.9
2023-03-23T22:02:35.352Z,77.0
2023-03-23T22:14:35.326Z,76.9
2023-03-23T22:26:35.409Z,76.8
2023-03-23T22:38:35.307Z,78.3
2023-03-23T22:50:35.423Z,79.4
2023-03-23T23:02:35.396Z,79.0
2023-03-23T23:14:35.420Z,79.1
2023-03-23T23:26:39.862Z,79.6
2023-03-23T23:38:35.314Z,80.1
2023-03-23T23:50:35.316Z,81.1
